Time;durP1;ratioP1;P1;durP2;ratioP2;P2;SDS_P1;SDS_P2;PMS_P1;PMS_P2;Temp;Humidity;BMP_temperature;BMP_pressure;BME280_temperature;BME280_humidity;BME280_pressure;Samples;Min_cycle;Max_cycle;Signal;HPM_P1;HPM_P2
2024/04/03 00:01:13;;;;;;;;;;;;;;;-144.99;100.00;52554.09;5009631;28;20020;-65
2024/04/03 00:03:40;;;;;;;;;;;;;;;-144.99;100.00;52554.09;5008550;28;19972;-65
2024/04/03 00:06:06;;;;;;;;;;;;;;;-144.99;100.00;52566.31;5004609;28;19983;-66
2024/04/03 00:08:32;;;;;;;;;;;;;;;-144.99;100.00;52558.16;5001697;28;19992;-66
2024/04/03 00:10:57;;;;;;;;;;;;;;;-144.99;100.00;52558.16;4999829;28;19973;-65
2024/04/03 00:13:24;;;;;;;;;;;;;;;-144.99;100.00;52552.03;4997828;28;19991;-66
2024/04/03 00:15:51;;;;;;;;;;;;;;;-144.99;100.00;52570.38;5008126;28;19929;-66
2024/04/03 00:18:17;;;;;;;;;;;;;;;-144.99;100.00;52558.16;5004995;28;19929;-66
2024/04/03 00:20:43;;;;;;;;;;;;;;;-144.99;100.00;52582.63;4996420;28;20310;-66
2024/04/03 00:23:09;;;;;;;;;;;;;;;-144.99;100.00;52541.84;5011304;28;20023;-66
2024/04/03 00:25:35;;;;;;;;;;;;;;;-144.99;100.00;52550.00;5008414;28;19972;-65
2024/04/03 00:28:01;;;;;;;;;;;;;;;-144.99;100.00;52590.78;5010879;28;19969;-66
2024/04/03 00:30:27;;;;;;;;;;;;;;;-144.99;100.00;52541.84;4998959;28;19968;-65
2024/04/03 00:32:54;;;;;;;;;;;;;;;-144.99;100.00;52570.38;5001937;28;20030;-65
2024/04/03 00:35:20;;;;;;;;;;;;;;;-144.99;100.00;52545.94;5000854;28;20060;-65
2024/04/03 00:37:46;;;;;;;;;;;;;;;-144.99;100.00;52594.84;4997147;28;20299;-65
2024/04/03 00:40:12;;;;;;;;;;;;;;;-144.99;100.00;52570.38;4990083;28;20032;-64
2024/04/03 00:42:38;;;;;;;;;;;;;;;-144.99;100.00;52574.47;5006877;28;20011;-65
2024/04/03 00:45:04;;;;;;;;;;;;;;;-144.99;100.00;52533.69;5000069;28;19960;-64
2024/04/03 00:47:31;;;;;;;;;;;;;;;-144.99;100.00;52552.03;4992577;28;20288;-65
2024/04/03 00:49:58;;;;;;;;;;;;;;;-144.99;100.00;52550.00;4988967;28;19965;-65
2024/04/03 00:52:25;;;;;;;;;;;;;;;-144.99;100.00;52554.09;5003345;28;19929;-64
2024/04/03 00:54:50;;;;;;;;;;;;;;;-144.99;100.00;52541.84;5000277;28;20365;-64
2024/04/03 00:57:17;;;;;;;;;;;;;;;-144.99;100.00;52578.53;5016904;28;20036;-64
2024/04/03 00:59:42;;;;;;;;;;;;;;;-144.99;100.00;52588.75;4998865;28;19930;-64
2024/04/03 01:02:09;;;;;;;;;;;;;;;-144.99;100.00;52558.16;5006667;28;20455;-64
2024/04/03 01:04:35;;;;;;;;;;;;;;;-144.99;100.00;52545.94;5007904;28;19933;-65
2024/04/03 01:07:04;;;;;;;;;;;;;;;-144.99;100.00;52582.63;5005256;28;20015;-65
2024/04/03 01:09:30;;;;;;;;;;;;;;;-144.99;100.00;52566.31;4988971;28;19930;-67
2024/04/03 01:11:56;;;;;;;;;;;;;;;-144.99;100.00;52558.16;5003089;28;20009;-69
2024/04/03 01:14:22;;;;;;;;;;;;;;;-144.99;100.00;52576.50;5015078;28;19934;-67
2024/04/03 01:16:48;;;;;;;;;;;;;;;-144.99;100.00;52574.47;5012459;28;19998;-65
2024/04/03 01:19:14;;;;;;;;;;;;;;;-144.99;100.00;52582.63;5007695;28;19984;-67
2024/04/03 01:21:41;;;;;;;;;;;;;;;-144.99;100.00;52545.94;4999618;28;20000;-65
2024/04/03 01:24:08;;;;;;;;;;;;;;;-144.99;100.00;52570.38;4996334;28;20331;-66
2024/04/03 01:26:34;;;;;;;;;;;;;;;-144.99;100.00;52554.09;5007830;28;20032;-66
2024/04/03 01:29:00;;;;;;;;;;;;;;;-144.99;100.00;52594.84;5012241;28;19965;-66
2024/04/03 01:31:26;;;;;;;;;;;;;;;-144.99;100.00;52582.63;5001046;28;20040;-66
2024/04/03 01:33:52;;;;;;;;;;;;;;;-144.99;100.00;52566.31;5011415;28;20393;-66
2024/04/03 01:36:18;;;;;;;;;;;;;;;-144.99;100.00;52537.78;5005507;28;19926;-66
2024/04/03 01:38:45;;;;;;;;;;;;;;;-144.99;100.00;52562.25;5004222;28;20020;-66
2024/04/03 01:41:14;;;;;;;;;;;;;;;-144.99;100.00;52558.16;4997388;28;19925;-66
2024/04/03 01:43:40;;;;;;;;;;;;;;;-144.99;100.00;52529.63;4652862;28;10000535;-66
2024/04/03 01:46:06;;;;;;;;;;;;;;;-144.99;100.00;52566.31;5005162;28;19965;-66
2024/04/03 01:48:31;;;;;;;;;;;;;;;-144.99;100.00;52609.13;5006581;28;20028;-67
2024/04/03 01:50:58;;;;;;;;;;;;;;;-144.99;100.00;52554.09;5010243;28;20008;-66
2024/04/03 01:53:23;;;;;;;;;;;;;;;-144.99;100.00;52562.25;5003046;28;20027;-66
2024/04/03 01:55:53;;;;;;;;;;;;;;;-144.99;100.00;52594.84;5009290;28;20032;-67
2024/04/03 01:58:20;;;;;;;;;;;;;;;-144.99;100.00;52584.66;5008652;28;19976;-66
2024/04/03 02:00:47;;;;;;;;;;;;;;;-144.99;100.00;52584.66;5010494;28;20299;-66
2024/04/03 02:03:12;;;;;;;;;;;;;;;-144.99;100.00;52562.25;5009021;28;19972;-66
2024/04/03 02:05:39;;;;;;;;;;;;;;;-144.99;100.00;52533.69;5009379;28;19985;-66
2024/04/03 02:08:04;;;;;;;;;;;;;;;-144.99;100.00;52586.69;5003964;28;19926;-64
2024/04/03 02:10:31;;;;;;;;;;;;;;;-144.99;100.00;52521.47;5008696;28;19926;-65
2024/04/03 02:12:56;;;;;;;;;;;;;;;-144.99;100.00;52611.16;4994768;28;20350;-65
2024/04/03 02:15:24;;;;;;;;;;;;;;;-144.99;100.00;52554.09;5001009;28;20017;-65
2024/04/03 02:17:50;;;;;;;;;;;;;;;-144.99;100.00;52578.53;5013763;28;19936;-66
2024/04/03 02:20:16;;;;;;;;;;;;;;;-144.99;100.00;52582.63;5003348;28;20335;-66
2024/04/03 02:22:42;;;;;;;;;;;;;;;-144.99;100.00;52558.16;5012490;28;20548;-66
2024/04/03 02:25:08;;;;;;;;;;;;;;;-144.99;100.00;52543.91;5012080;28;19961;-66
2024/04/03 02:27:34;;;;;;;;;;;;;;;-144.99;100.00;52603.00;5007236;28;19925;-67
2024/04/03 02:30:00;;;;;;;;;;;;;;;-144.99;100.00;52574.47;5011886;28;20052;-66
2024/04/03 02:32:27;;;;;;;;;;;;;;;-144.99;100.00;52578.53;5012436;28;20568;-66
2024/04/03 02:34:54;;;;;;;;;;;;;;;-144.99;100.00;52578.53;5005381;28;19929;-66
2024/04/03 02:37:19;;;;;;;;;;;;;;;-144.99;100.00;52570.38;4997678;28;20053;-66
2024/04/03 02:39:46;;;;;;;;;;;;;;;-144.99;100.00;52615.25;5007021;28;20021;-66
2024/04/03 02:42:11;;;;;;;;;;;;;;;-144.99;100.00;52570.38;5001590;28;19933;-66
2024/04/03 02:44:38;;;;;;;;;;;;;;;-144.99;100.00;52594.84;4992625;28;19925;-66
2024/04/03 02:47:04;;;;;;;;;;;;;;;-144.99;100.00;52570.38;5007104;28;19981;-65
2024/04/03 02:49:31;;;;;;;;;;;;;;;-144.99;100.00;52596.88;5007102;28;19969;-66
2024/04/03 02:51:57;;;;;;;;;;;;;;;-144.99;100.00;52578.53;5010315;28;20280;-65
2024/04/03 02:54:23;;;;;;;;;;;;;;;-144.99;100.00;52611.16;5004624;28;20002;-64
2024/04/03 02:56:49;;;;;;;;;;;;;;;-144.99;100.00;52631.53;5008777;28;19932;-64
2024/04/03 02:59:15;;;;;;;;;;;;;;;-144.99;100.00;52619.31;5008753;28;20355;-63
2024/04/03 03:01:41;;;;;;;;;;;;;;;-144.99;100.00;52594.84;5015006;28;20028;-64
2024/04/03 03:04:08;;;;;;;;;;;;;;;-144.99;100.00;52586.69;5017116;28;20378;-62
2024/04/03 03:06:35;;;;;;;;;;;;;;;-144.99;100.00;52566.31;5020509;28;19925;-62
2024/04/03 03:09:01;;;;;;;;;;;;;;;-144.99;100.00;52586.69;5008271;28;20268;-63
2024/04/03 03:11:27;;;;;;;;;;;;;;;-144.99;100.00;52574.47;5011208;28;20048;-63
2024/04/03 03:13:53;;;;;;;;;;;;;;;-144.99;100.00;52594.84;5012064;28;20020;-63
2024/04/03 03:16:20;;;;;;;;;;;;;;;-144.99;100.00;52545.94;5004476;28;19996;-61
2024/04/03 03:18:46;;;;;;;;;;;;;;;-144.99;100.00;52556.13;5012409;28;20213;-63
2024/04/03 03:21:12;;;;;;;;;;;;;;;-144.99;100.00;52623.38;5017141;28;19996;-62
2024/04/03 03:23:39;;;;;;;;;;;;;;;-144.99;100.00;52619.31;5009268;28;19988;-63
2024/04/03 03:26:05;;;;;;;;;;;;;;;-144.99;100.00;52588.75;5014530;28;19979;-63
2024/04/03 03:28:31;;;;;;;;;;;;;;;-144.99;100.00;52556.13;5014415;28;20356;-62
2024/04/03 03:30:58;;;;;;;;;;;;;;;-144.99;100.00;52570.38;5014130;28;19965;-62
2024/04/03 03:33:25;;;;;;;;;;;;;;;-144.99;100.00;52586.69;5015033;28;19926;-62
2024/04/03 03:35:51;;;;;;;;;;;;;;;-144.99;100.00;52578.53;5003394;28;20024;-62
2024/04/03 03:38:17;;;;;;;;;;;;;;;-144.99;100.00;52625.44;5015297;28;20032;-63
2024/04/03 03:40:46;;;;;;;;;;;;;;;-144.99;100.00;52578.53;5010035;28;20049;-63
2024/04/03 03:43:12;;;;;;;;;;;;;;;-144.99;100.00;52570.38;5008012;28;19988;-61
2024/04/03 03:45:43;;;;;;;;;;;;;;;-144.99;100.00;52627.47;5016074;28;20454;-61
2024/04/03 03:48:08;;;;;;;;;;;;;;;-144.99;100.00;52615.25;5010215;28;20281;-62
2024/04/03 03:53:25;;;;;;;;;;;;;;;-144.99;100.00;52615.25;4944843;28;19927;-62
2024/04/03 03:55:53;;;;;;;;;;;;;;;-144.99;100.00;52590.78;5011795;28;19980;-61
2024/04/03 03:58:20;;;;;;;;;;;;;;;-144.99;100.00;52623.38;4992584;28;20359;-62
2024/04/03 04:00:46;;;;;;;;;;;;;;;-144.99;100.00;52603.00;5000667;28;20027;-62
2024/04/03 04:03:13;;;;;;;;;;;;;;;-144.99;100.00;52590.78;5005931;28;19956;-65
2024/04/03 04:05:38;;;;;;;;;;;;;;;-144.99;100.00;52611.16;5022525;28;20024;-64
2024/04/03 04:08:05;;;;;;;;;;;;;;;-144.99;100.00;52594.84;5010146;28;19979;-63
2024/04/03 04:10:31;;;;;;;;;;;;;;;-144.99;100.00;52629.50;5000779;28;20391;-63
2024/04/03 04:12:58;;;;;;;;;;;;;;;-144.99;100.00;52615.25;5005521;28;19965;-64
2024/04/03 04:15:24;;;;;;;;;;;;;;;-144.99;100.00;52603.00;5003422;28;20020;-64
2024/04/03 04:17:51;;;;;;;;;;;;;;;-144.99;100.00;52564.28;5006084;28;19969;-64
2024/04/03 04:20:16;;;;;;;;;;;;;;;-144.99;100.00;52607.09;5007162;28;19956;-64
2024/04/03 04:22:45;;;;;;;;;;;;;;;-144.99;100.00;52580.59;5003979;28;19965;-65
2024/04/03 04:25:11;;;;;;;;;;;;;;;-144.99;100.00;52592.81;4993174;28;19984;-65
2024/04/03 04:27:38;;;;;;;;;;;;;;;-144.99;100.00;52615.25;5007492;28;19961;-61
2024/04/03 04:30:05;;;;;;;;;;;;;;;-144.99;100.00;52586.69;5013779;28;20007;-62
2024/04/03 04:32:32;;;;;;;;;;;;;;;-144.99;100.00;52605.03;5007790;28;20311;-61
2024/04/03 04:34:57;;;;;;;;;;;;;;;-144.99;100.00;52631.53;5009549;28;20010;-62
2024/04/03 04:37:24;;;;;;;;;;;;;;;-144.99;100.00;52627.47;5008876;28;20352;-62
2024/04/03 04:39:50;;;;;;;;;;;;;;;-144.99;100.00;52603.00;5006419;28;20173;-62
2024/04/03 04:42:16;;;;;;;;;;;;;;;-144.99;100.00;52570.38;5014319;28;20014;-63
2024/04/03 04:44:42;;;;;;;;;;;;;;;-144.99;100.00;52619.31;5010747;28;19976;-62
2024/04/03 04:47:10;;;;;;;;;;;;;;;-144.99;100.00;52590.78;5017415;28;20370;-61
2024/04/03 04:49:35;;;;;;;;;;;;;;;-144.99;100.00;52594.84;5004777;28;20458;-62
2024/04/03 04:52:02;;;;;;;;;;;;;;;-144.99;100.00;52550.00;5010795;28;20001;-62
2024/04/03 04:54:27;;;;;;;;;;;;;;;-144.99;100.00;52613.19;5009171;28;20060;-61
2024/04/03 04:56:54;;;;;;;;;;;;;;;-144.99;100.00;52582.63;5010233;28;20012;-61
2024/04/03 04:59:19;;;;;;;;;;;;;;;-144.99;100.00;52596.88;5012539;28;20032;-62
2024/04/03 05:01:46;;;;;;;;;;;;;;;-144.99;100.00;52582.63;5015926;28;20008;-62
2024/04/03 05:04:13;;;;;;;;;;;;;;;-144.99;100.00;52570.38;5005492;28;19929;-62
2024/04/03 05:06:39;;;;;;;;;;;;;;;-144.99;100.00;52611.16;5007252;28;19929;-61
2024/04/03 05:09:06;;;;;;;;;;;;;;;-144.99;100.00;52623.38;4996144;28;19926;-61
2024/04/03 05:11:33;;;;;;;;;;;;;;;-144.99;99.90;52586.69;5007876;28;19925;-60
2024/04/03 05:13:59;;;;;;;;;;;;;;;-144.99;99.76;52578.53;5005273;28;19964;-60
2024/04/03 05:16:25;;;;;;;;;;;;;;;-144.99;99.77;52594.84;5001374;28;19993;-61
2024/04/03 05:18:51;;;;;;;;;;;;;;;-144.99;99.60;52603.00;4992175;28;19972;-61
2024/04/03 05:21:22;;;;;;;;;;;;;;;-144.99;99.83;52584.66;5009438;28;20009;-61
2024/04/03 05:23:47;;;;;;;;;;;;;;;-144.99;99.88;52594.84;4997882;28;20225;-60
2024/04/03 05:26:14;;;;;;;;;;;;;;;-144.99;99.72;52600.97;5005729;28;19937;-66
2024/04/03 05:28:40;;;;;;;;;;;;;;;-144.99;99.68;52649.88;5007703;28;19965;-66
2024/04/03 05:31:08;;;;;;;;;;;;;;;-144.99;99.79;52629.50;5003074;28;20365;-66
2024/04/03 05:33:34;;;;;;;;;;;;;;;-144.99;99.57;52578.53;4989670;28;20461;-73
2024/04/03 05:36:01;;;;;;;;;;;;;;;-144.99;99.66;52627.47;5001265;28;20016;-73
2024/04/03 05:38:28;;;;;;;;;;;;;;;-144.99;100.00;52611.16;4996830;28;19976;-77
2024/04/03 05:40:55;;;;;;;;;;;;;;;-144.99;99.77;52586.69;5003541;28;19925;-77
2024/04/03 05:43:21;;;;;;;;;;;;;;;-144.99;99.36;52603.00;5003268;28;19938;-74
2024/04/03 05:45:48;;;;;;;;;;;;;;;-144.99;99.46;52607.09;5005552;28;19982;-75
2024/04/03 05:48:15;;;;;;;;;;;;;;;-144.99;99.58;52611.16;5011751;28;20001;-64
2024/04/03 05:50:41;;;;;;;;;;;;;;;-144.99;99.53;52594.84;5008788;28;19936;-64
2024/04/03 05:53:07;;;;;;;;;;;;;;;-144.99;99.31;52607.09;5001807;28;19925;-65
2024/04/03 05:55:35;;;;;;;;;;;;;;;-144.99;99.10;52586.69;5011667;28;20453;-65
2024/04/03 05:58:00;;;;;;;;;;;;;;;-144.99;98.58;52615.25;5001186;28;19992;-65
2024/04/03 06:00:27;;;;;;;;;;;;;;;-144.99;98.88;52603.00;5003990;28;20354;-63
2024/04/03 06:02:53;;;;;;;;;;;;;;;-144.99;98.43;52627.47;5005273;28;19984;-65
2024/04/03 06:05:19;;;;;;;;;;;;;;;-144.99;98.57;52615.25;5000167;28;19965;-66
2024/04/03 06:07:45;;;;;;;;;;;;;;;-144.99;98.58;52594.84;5002348;28;19933;-65
2024/04/03 06:10:12;;;;;;;;;;;;;;;-144.99;97.53;52596.88;5008929;28;20505;-67
2024/04/03 06:12:39;;;;;;;;;;;;;;;-144.99;97.36;52611.16;4993982;28;19937;-66
2024/04/03 06:15:06;;;;;;;;;;;;;;;-144.99;97.25;52594.84;5004037;28;19972;-65
2024/04/03 06:17:32;;;;;;;;;;;;;;;-144.99;96.63;52586.69;5008125;28;20078;-66
2024/04/03 06:19:58;;;;;;;;;;;;;;;-144.99;96.65;52615.25;5007986;28;20020;-64
2024/04/03 06:22:24;;;;;;;;;;;;;;;-144.99;96.55;52578.53;5008841;28;20343;-64
2024/04/03 06:24:50;;;;;;;;;;;;;;;-144.99;96.70;52562.25;5013690;28;19984;-65
2024/04/03 06:27:16;;;;;;;;;;;;;;;-144.99;96.67;52598.94;4997645;28;19983;-66
2024/04/03 06:29:43;;;;;;;;;;;;;;;-144.99;96.41;52594.84;5003868;28;19933;-65
2024/04/03 06:32:10;;;;;;;;;;;;;;;-144.99;95.82;52582.63;5000290;28;19964;-65
2024/04/03 06:34:36;;;;;;;;;;;;;;;-144.99;95.61;52627.47;4992740;28;19937;-66
2024/04/03 06:37:02;;;;;;;;;;;;;;;-144.99;95.20;52541.84;5009058;28;19929;-65
2024/04/03 06:39:28;;;;;;;;;;;;;;;-144.99;94.91;52603.00;5001769;28;20328;-64
2024/04/03 06:41:54;;;;;;;;;;;;;;;-144.99;95.09;52570.38;5002452;28;19932;-64
2024/04/03 06:44:20;;;;;;;;;;;;;;;-144.99;95.50;52605.03;5002994;28;19961;-66
2024/04/03 06:46:48;;;;;;;;;;;;;;;-144.99;95.81;52570.38;5007714;28;20019;-64
2024/04/03 06:49:14;;;;;;;;;;;;;;;-144.99;96.24;52598.94;5008943;28;20028;-64
2024/04/03 06:51:40;;;;;;;;;;;;;;;-144.99;96.61;52594.84;5008390;28;19941;-64
2024/04/03 06:54:07;;;;;;;;;;;;;;;-144.99;96.68;52566.31;5001270;28;20013;-64
2024/04/03 06:56:34;;;;;;;;;;;;;;;-144.99;96.42;52611.16;4998145;28;19937;-64
2024/04/03 06:58:59;;;;;;;;;;;;;;;-144.99;95.68;52598.94;5012294;28;19926;-65
2024/04/03 07:01:26;;;;;;;;;;;;;;;-144.99;95.71;52611.16;5004626;28;20345;-65
2024/04/03 07:03:53;;;;;;;;;;;;;;;-144.99;94.27;52611.16;5012983;28;19975;-65
2024/04/03 07:06:19;;;;;;;;;;;;;;;-144.99;93.36;52572.44;4997973;28;20021;-66
2024/04/03 07:08:45;;;;;;;;;;;;;;;-144.99;93.97;52588.75;5005284;28;20025;-67
2024/04/03 07:11:11;;;;;;;;;;;;;;;-144.99;93.33;52586.69;5008140;28;20080;-67
2024/04/03 07:13:37;;;;;;;;;;;;;;;-144.99;93.47;52607.09;5000455;28;19969;-67
2024/04/03 07:16:04;;;;;;;;;;;;;;;-144.99;92.83;52570.38;4996074;28;19969;-67
2024/04/03 07:18:29;;;;;;;;;;;;;;;-144.99;92.91;52605.03;4995225;28;20397;-67
2024/04/03 07:20:58;;;;;;;;;;;;;;;-144.99;93.78;52586.69;4999371;28;19992;-66
2024/04/03 07:23:26;;;;;;;;;;;;;;;-144.99;93.44;52619.31;5003985;28;19937;-67
2024/04/03 07:25:52;;;;;;;;;;;;;;;-144.99;93.89;52574.47;5004771;28;20011;-67
2024/04/03 07:28:18;;;;;;;;;;;;;;;-144.99;92.11;52586.69;4989636;28;20008;-68
2024/04/03 07:30:44;;;;;;;;;;;;;;;-144.99;92.57;52578.53;5008867;28;20023;-66
2024/04/03 07:33:10;;;;;;;;;;;;;;;-144.99;92.50;52611.16;4996908;28;19972;-66
2024/04/03 07:35:36;;;;;;;;;;;;;;;-144.99;92.49;52590.78;5008594;28;20044;-65
2024/04/03 07:38:05;;;;;;;;;;;;;;;-144.99;91.95;52586.69;5015998;28;19991;-65
2024/04/03 07:40:31;;;;;;;;;;;;;;;-144.99;91.98;52566.31;5009374;28;20451;-68
2024/04/03 07:42:57;;;;;;;;;;;;;;;-144.99;92.64;52631.53;5012173;28;20024;-69
2024/04/03 07:45:23;;;;;;;;;;;;;;;-144.99;92.02;52611.16;5011853;28;19934;-69
2024/04/03 07:47:49;;;;;;;;;;;;;;;-144.99;91.54;52627.47;5010539;28;19984;-68
2024/04/03 07:50:15;;;;;;;;;;;;;;;-144.99;91.93;52613.19;5008088;28;20027;-68
2024/04/03 07:52:42;;;;;;;;;;;;;;;-144.99;90.70;52562.25;5006871;28;20020;-71
2024/04/03 07:55:09;;;;;;;;;;;;;;;-144.99;91.10;52586.69;5011442;28;19957;-70
2024/04/03 07:57:36;;;;;;;;;;;;;;;-144.99;91.12;52582.63;4998378;28;19926;-68
2024/04/03 08:00:03;;;;;;;;;;;;;;;-144.99;90.24;52598.94;5006717;28;19937;-65
2024/04/03 08:02:30;;;;;;;;;;;;;;;-144.99;90.74;52590.78;5007835;28;19932;-67
2024/04/03 08:04:55;;;;;;;;;;;;;;;-144.99;90.63;52607.09;5006966;28;19930;-66
2024/04/03 08:07:22;;;;;;;;;;;;;;;-144.99;90.73;52607.09;5011675;28;19943;-67
2024/04/03 08:09:47;;;;;;;;;;;;;;;-144.99;91.10;52554.09;5007392;28;19980;-67
2024/04/03 08:12:15;;;;;;;;;;;;;;;-144.99;91.10;52603.00;5001918;28;19968;-67
2024/04/03 08:14:40;;;;;;;;;;;;;;;-144.99;91.11;52607.09;5001196;28;20280;-66
2024/04/03 08:17:08;;;;;;;;;;;;;;;-144.99;90.11;52576.50;5009622;28;19932;-66
2024/04/03 08:19:34;;;;;;;;;;;;;;;-144.99;91.00;52578.53;5001703;28;19929;-67
2024/04/03 08:22:00;;;;;;;;;;;;;;;-144.99;91.25;52578.53;5013608;28;19983;-66
2024/04/03 08:24:26;;;;;;;;;;;;;;;-144.99;89.84;52558.16;5001754;28;20007;-66
2024/04/03 08:26:54;;;;;;;;;;;;;;;-144.99;88.97;52564.28;4997993;28;20148;-67
2024/04/03 08:29:22;;;;;;;;;;;;;;;-144.99;89.53;52552.03;5001105;28;19948;-67
2024/04/03 08:31:48;;;;;;;;;;;;;;;-144.99;89.79;52570.38;5004341;28;20280;-67
2024/04/03 08:34:14;;;;;;;;;;;;;;;-144.99;89.20;52586.69;5008438;28;19987;-67
2024/04/03 08:36:41;;;;;;;;;;;;;;;-144.99;88.95;52558.16;5010767;28;19930;-66
2024/04/03 08:39:07;;;;;;;;;;;;;;;-144.99;88.71;52533.69;5007349;28;19933;-66
2024/04/03 08:41:34;;;;;;;;;;;;;;;-144.99;89.80;52598.94;4999708;28;19925;-66
2024/04/03 08:44:00;;;;;;;;;;;;;;;-144.99;90.79;52615.25;4997169;28;19926;-67
2024/04/03 08:46:29;;;;;;;;;;;;;;;-144.99;91.41;52564.28;5005115;28;20063;-68
2024/04/03 08:48:56;;;;;;;;;;;;;;;-144.99;91.23;52596.88;5000628;28;20402;-67
2024/04/03 08:51:23;;;;;;;;;;;;;;;-144.99;91.65;52558.16;5011400;28;20031;-69
2024/04/03 08:53:49;;;;;;;;;;;;;;;-144.99;91.05;52562.25;4999953;28;20451;-68
2024/04/03 08:56:17;;;;;;;;;;;;;;;-144.99;92.38;52613.19;4994951;28;19926;-68
2024/04/03 08:58:42;;;;;;;;;;;;;;;-144.99;92.24;52545.94;4995788;28;20373;-68
2024/04/03 09:01:09;;;;;;;;;;;;;;;-144.99;92.69;52580.59;5003526;28;20020;-67
2024/04/03 09:03:36;;;;;;;;;;;;;;;-144.99;91.98;52562.25;5001015;28;20380;-67
2024/04/03 09:06:03;;;;;;;;;;;;;;;-144.99;92.77;52586.69;5006003;28;20175;-68
2024/04/03 09:08:39;;;;;;;;;;;;;;;-144.99;93.64;52568.34;5004068;28;20280;-67
2024/04/03 09:11:05;;;;;;;;;;;;;;;-144.99;92.90;52592.81;5004366;28;20012;-67
2024/04/03 09:13:31;;;;;;;;;;;;;;;-144.99;93.39;52545.94;4997284;28;19929;-67
2024/04/03 09:15:59;;;;;;;;;;;;;;;-144.99;92.85;52598.94;5006145;28;20479;-67
2024/04/03 09:18:24;;;;;;;;;;;;;;;-144.99;93.22;52629.50;4995724;28;19940;-66
2024/04/03 09:20:53;;;;;;;;;;;;;;;-144.99;93.25;52582.63;4996411;28;19925;-67
2024/04/03 09:23:18;;;;;;;;;;;;;;;-144.99;93.40;52558.16;5006002;28;20406;-66
2024/04/03 09:25:45;;;;;;;;;;;;;;;-144.99;93.10;52566.31;4999166;28;19930;-66
2024/04/03 09:28:11;;;;;;;;;;;;;;;-144.99;93.85;52541.84;5003580;28;20357;-66
2024/04/03 09:30:40;;;;;;;;;;;;;;;-144.99;94.76;52578.53;4993764;28;19965;-67
2024/04/03 09:33:06;;;;;;;;;;;;;;;-144.99;93.34;52582.63;5005530;28;19933;-68
2024/04/03 09:35:33;;;;;;;;;;;;;;;-144.99;93.84;52547.97;4992208;28;19934;-69
2024/04/03 09:38:01;;;;;;;;;;;;;;;-144.99;94.37;52560.19;4997958;28;20026;-67
2024/04/03 09:40:28;;;;;;;;;;;;;;;-144.99;94.45;52570.38;4999961;28;19926;-68
2024/04/03 09:42:56;;;;;;;;;;;;;;;-144.99;95.48;52529.63;5000155;28;20406;-69
2024/04/03 09:45:23;;;;;;;;;;;;;;;-144.99;94.18;52547.97;5008389;28;19926;-69
2024/04/03 09:47:53;;;;;;;;;;;;;;;-144.99;94.21;52564.28;4995806;28;20475;-69
2024/04/03 09:50:20;;;;;;;;;;;;;;;-144.99;94.45;52545.94;5006949;28;19925;-68
2024/04/03 09:52:47;;;;;;;;;;;;;;;-144.99;93.76;52603.00;5003800;28;19925;-69
2024/04/03 09:55:15;;;;;;;;;;;;;;;-144.99;94.27;52566.31;4998108;28;19988;-69
2024/04/03 09:57:41;;;;;;;;;;;;;;;-144.99;92.71;52558.16;5009631;28;19965;-68
2024/04/03 10:00:10;;;;;;;;;;;;;;;-144.99;94.49;52543.91;4988542;28;19988;-68
2024/04/03 10:02:45;;;;;;;;;;;;;;;-144.99;94.13;52521.47;4993114;28;19925;-67
2024/04/03 10:05:12;;;;;;;;;;;;;;;-144.99;94.17;52537.78;4995777;28;19925;-68
2024/04/03 10:07:39;;;;;;;;;;;;;;;-144.99;94.77;52554.09;5004768;28;20045;-69
2024/04/03 10:10:15;;;;;;;;;;;;;;;-144.99;95.06;52545.94;4997929;28;19930;-68
2024/04/03 10:12:44;;;;;;;;;;;;;;;-144.99;94.90;52539.81;5017324;28;20469;-68
2024/04/03 10:15:11;;;;;;;;;;;;;;;-144.99;94.97;52554.09;5005671;28;19996;-69
2024/04/03 10:17:37;;;;;;;;;;;;;;;-144.99;95.21;52533.69;5007221;23;20522;-67
2024/04/03 10:20:04;;;;;;;;;;;;;;;-144.99;95.24;52558.16;4978101;28;19926;-66
2024/04/03 10:22:31;;;;;;;;;;;;;;;-144.99;95.40;52552.03;4956325;28;20584;-66
2024/04/03 10:24:58;;;;;;;;;;;;;;;-144.99;95.50;52558.16;4965826;28;20225;-66
2024/04/03 10:27:23;;;;;;;;;;;;;;;-144.99;94.79;52550.00;4966561;28;20372;-66
2024/04/03 10:30:01;;;;;;;;;;;;;;;-144.99;95.81;52537.78;4969374;28;19966;-66
2024/04/03 10:32:27;;;;;;;;;;;;;;;-144.99;96.00;52558.16;4968303;28;20340;-67
2024/04/03 10:34:54;;;;;;;;;;;;;;;-144.99;96.05;52582.63;4968366;28;20025;-70
2024/04/03 10:37:19;;;;;;;;;;;;;;;-144.99;96.17;52560.19;4967023;28;19973;-66
2024/04/03 10:39:46;;;;;;;;;;;;;;;-144.99;96.57;52570.38;4961329;28;20044;-66
2024/04/03 10:42:12;;;;;;;;;;;;;;;-144.99;97.06;52554.09;4964049;28;19930;-66
2024/04/03 10:44:41;;;;;;;;;;;;;;;-144.99;96.85;52554.09;4969530;28;20045;-65
2024/04/03 10:47:09;;;;;;;;;;;;;;;-144.99;97.38;52558.16;4969205;28;19926;-65
2024/04/03 10:49:36;;;;;;;;;;;;;;;-144.99;97.99;52554.09;4968832;28;20124;-65
2024/04/03 10:52:02;;;;;;;;;;;;;;;-144.99;98.11;52488.84;4961562;28;19934;-66
2024/04/03 10:54:28;;;;;;;;;;;;;;;-144.99;98.19;52568.34;4963392;28;20347;-66
2024/04/03 10:56:59;;;;;;;;;;;;;;;-144.99;98.65;52550.00;4962546;28;20408;-67
2024/04/03 10:59:26;;;;;;;;;;;;;;;-144.99;99.28;52568.34;4962888;28;19933;-66
2024/04/03 11:01:51;;;;;;;;;;;;;;;-144.99;99.19;52501.09;4966244;28;19967;-66
2024/04/03 11:04:19;;;;;;;;;;;;;;;-144.99;98.87;52570.38;4969623;28;20086;-66
2024/04/03 11:06:46;;;;;;;;;;;;;;;-144.99;99.33;52582.63;4966735;28;20313;-65
2024/04/03 11:09:12;;;;;;;;;;;;;;;-144.99;99.74;52554.09;4968809;28;20337;-66
2024/04/03 11:11:40;;;;;;;;;;;;;;;-144.99;100.00;52525.56;4964537;28;19985;-66
2024/04/03 11:14:06;;;;;;;;;;;;;;;-144.99;99.70;52570.38;4972675;28;19934;-66
2024/04/03 11:16:32;;;;;;;;;;;;;;;-144.99;100.00;52550.00;4977231;28;19981;-66
2024/04/03 11:18:58;;;;;;;;;;;;;;;-144.99;100.00;52598.94;4978657;28;19926;-66
2024/04/03 11:21:26;;;;;;;;;;;;;;;-144.99;100.00;52550.00;4975207;28;20408;-67
2024/04/03 11:23:53;;;;;;;;;;;;;;;-144.99;100.00;52529.63;4976710;28;19926;-66
2024/04/03 11:26:20;;;;;;;;;;;;;;;-144.99;100.00;52586.69;4977809;28;19930;-67
2024/04/03 11:28:47;;;;;;;;;;;;;;;-144.99;100.00;52564.28;4975006;28;19937;-66
2024/04/03 11:31:12;;;;;;;;;;;;;;;-144.99;100.00;52550.00;4970090;28;19985;-66
2024/04/03 11:33:39;;;;;;;;;;;;;;;-144.99;100.00;52552.03;4974228;28;19926;-66
2024/04/03 11:36:05;;;;;;;;;;;;;;;-144.99;100.00;52550.00;4969571;28;20474;-66
2024/04/03 11:38:33;;;;;;;;;;;;;;;-144.99;100.00;52576.50;4975213;28;19933;-66
2024/04/03 11:40:59;;;;;;;;;;;;;;;-144.99;100.00;52568.34;4975628;28;19926;-66
2024/04/03 11:43:25;;;;;;;;;;;;;;;-144.99;100.00;52594.84;4974517;28;20399;-66
2024/04/03 11:45:51;;;;;;;;;;;;;;;-144.99;100.00;52552.03;4975291;28;19950;-66
2024/04/03 11:48:17;;;;;;;;;;;;;;;-144.99;100.00;52545.94;4973924;28;20380;-66
2024/04/03 11:50:43;;;;;;;;;;;;;;;-144.99;100.00;52541.84;4972748;28;20351;-66
2024/04/03 11:53:09;;;;;;;;;;;;;;;-144.99;100.00;52509.25;4964132;28;19985;-66
2024/04/03 11:55:36;;;;;;;;;;;;;;;-144.99;100.00;52574.47;4965169;28;20025;-66
2024/04/03 11:58:03;;;;;;;;;;;;;;;-144.99;100.00;52545.94;4968840;28;20277;-66
2024/04/03 12:00:28;;;;;;;;;;;;;;;-144.99;100.00;52562.25;4967450;28;19989;-66
2024/04/03 12:02:55;;;;;;;;;;;;;;;-144.99;100.00;52590.78;4971530;28;19930;-66
2024/04/03 12:05:20;;;;;;;;;;;;;;;-144.99;100.00;52550.00;4970701;28;19961;-66
2024/04/03 12:07:47;;;;;;;;;;;;;;;-144.99;100.00;52554.09;4968165;28;19988;-66
2024/04/03 12:10:12;;;;;;;;;;;;;;;-144.99;100.00;52545.94;4970106;28;19927;-66
2024/04/03 12:12:40;;;;;;;;;;;;;;;-144.99;100.00;52578.53;4971042;28;19926;-67
2024/04/03 12:15:07;;;;;;;;;;;;;;;-144.99;100.00;52564.28;4966386;28;20288;-66
2024/04/03 12:17:34;;;;;;;;;;;;;;;-144.99;100.00;52574.47;4966472;28;19926;-66
2024/04/03 12:20:06;;;;;;;;;;;;;;;-144.99;100.00;52533.69;4971181;28;19930;-65